createdAt,value
2023-05-03T00:00:43.470Z,49.32
2023-05-03T00:03:10.980Z,49.96
2023-05-03T00:05:38.410Z,49.51
2023-05-03T00:08:07.458Z,49.73
2023-05-03T00:10:34.592Z,49.51
2023-05-03T00:13:01.630Z,49.24
2023-05-03T00:15:28.808Z,49.38
2023-05-03T00:17:56.006Z,49.35
2023-05-03T00:20:23.350Z,49.35
2023-05-03T00:22:50.595Z,49.33
2023-05-03T00:25:17.924Z,49.65
2023-05-03T00:27:45.117Z,49.43
2023-05-03T00:30:13.150Z,49.72
2023-05-03T00:32:40.146Z,50.22
2023-05-03T00:35:07.981Z,49.98
2023-05-03T00:37:35.062Z,50.26
2023-05-03T00:40:02.484Z,49.79
2023-05-03T00:42:29.776Z,50.24
2023-05-03T00:44:56.837Z,50.53
2023-05-03T00:47:24.198Z,50.50
2023-05-03T00:49:51.953Z,50.03
2023-05-03T00:52:19.056Z,50.48
2023-05-03T00:54:46.362Z,50.39
2023-05-03T00:57:13.914Z,50.43
2023-05-03T00:59:47.777Z,51.16
2023-05-03T01:02:14.985Z,51.31
2023-05-03T01:04:43.597Z,51.16
2023-05-03T01:07:48.496Z,51.21
2023-05-03T01:10:45.192Z,51.60
2023-05-03T01:13:47.582Z,52.04
2023-05-03T01:16:23.794Z,52.24
2023-05-03T01:18:53.582Z,52.06
2023-05-03T01:21:22.983Z,52.32
2023-05-03T01:24:14.345Z,52.33
2023-05-03T01:26:45.079Z,52.71
2023-05-03T01:29:14.949Z,52.89
2023-05-03T01:32:01.927Z,53.34
2023-05-03T01:34:39.172Z,53.11
2023-05-03T01:37:10.533Z,54.18
2023-05-03T01:39:44.864Z,54.94
2023-05-03T01:42:17.262Z,54.61
2023-05-03T01:44:46.063Z,53.73
2023-05-03T01:47:18.206Z,54.96
2023-05-03T01:49:47.623Z,54.45
2023-05-03T01:52:17.673Z,53.83
2023-05-03T01:54:45.197Z,54.45
2023-05-03T01:57:12.884Z,54.13
2023-05-03T01:59:42.000Z,54.29
2023-05-03T02:02:09.748Z,54.80
2023-05-03T02:04:37.108Z,54.88
2023-05-03T02:07:04.216Z,54.57
2023-05-03T02:09:31.152Z,55.00
2023-05-03T02:11:58.170Z,55.43
2023-05-03T02:14:25.489Z,54.90
2023-05-03T02:16:55.911Z,55.77
2023-05-03T02:19:23.219Z,55.61
2023-05-03T02:21:50.268Z,55.80
2023-05-03T02:24:17.801Z,54.78
2023-05-03T02:26:45.134Z,55.60
2023-05-03T02:29:12.299Z,55.37
2023-05-03T02:31:39.284Z,55.40
2023-05-03T02:34:07.345Z,55.13
2023-05-03T02:36:34.434Z,55.36
2023-05-03T02:39:02.208Z,55.67
2023-05-03T02:41:29.306Z,55.20
2023-05-03T02:43:57.264Z,54.69
2023-05-03T02:46:26.931Z,54.33
2023-05-03T02:48:54.414Z,54.54
2023-05-03T02:51:21.392Z,55.50
2023-05-03T02:53:49.021Z,54.99
2023-05-03T02:56:16.276Z,54.70
2023-05-03T02:58:43.426Z,54.49
2023-05-03T03:01:12.100Z,54.36
2023-05-03T03:03:39.668Z,54.92
2023-05-03T03:06:07.398Z,55.15
2023-05-03T03:08:38.854Z,54.36
2023-05-03T03:11:08.243Z,54.30
2023-05-03T03:13:40.012Z,54.42
2023-05-03T03:16:08.635Z,54.42
2023-05-03T03:18:36.800Z,53.85
2023-05-03T03:21:04.294Z,54.31
2023-05-03T03:23:32.945Z,54.46
2023-05-03T03:26:00.213Z,54.38
2023-05-03T03:28:27.768Z,53.71
2023-05-03T03:30:58.460Z,53.88
2023-05-03T03:33:29.051Z,53.95
2023-05-03T03:36:03.040Z,54.64
2023-05-03T03:38:36.456Z,54.20
2023-05-03T03:41:08.624Z,54.16
2023-05-03T03:43:36.638Z,53.74
2023-05-03T03:46:07.219Z,53.77
2023-05-03T03:48:34.898Z,54.12
2023-05-03T03:51:02.117Z,53.84
2023-05-03T03:53:36.515Z,54.33
2023-05-03T03:56:04.176Z,53.65
2023-05-03T03:58:32.532Z,53.77
2023-05-03T04:01:01.606Z,53.84
2023-05-03T04:03:30.311Z,53.51
2023-05-03T04:05:58.173Z,53.51
2023-05-03T04:08:26.535Z,54.06
2023-05-03T04:10:53.772Z,53.86
2023-05-03T04:13:21.564Z,53.97
2023-05-03T04:15:56.302Z,53.81
2023-05-03T04:18:24.155Z,54.09
2023-05-03T04:20:53.978Z,53.65
2023-05-03T04:23:22.156Z,53.43
2023-05-03T04:25:49.670Z,53.42
2023-05-03T04:28:19.513Z,53.69
2023-05-03T04:30:49.628Z,53.37
2023-05-03T04:33:22.587Z,53.00
2023-05-03T04:35:52.864Z,53.42
2023-05-03T04:38:20.689Z,53.29
2023-05-03T04:40:47.933Z,53.43
2023-05-03T04:43:15.326Z,53.18
2023-05-03T04:45:45.651Z,53.10
2023-05-03T04:48:18.414Z,53.51
2023-05-03T04:50:45.683Z,53.15
2023-05-03T04:53:15.709Z,53.02
2023-05-03T04:55:47.806Z,53.08
2023-05-03T04:58:15.599Z,53.01
2023-05-03T05:00:43.384Z,52.96
2023-05-03T05:03:16.531Z,53.17
2023-05-03T05:05:46.984Z,52.99
2023-05-03T05:08:14.737Z,53.12
2023-05-03T05:10:48.158Z,53.35
2023-05-03T05:13:20.097Z,52.88
2023-05-03T05:15:47.173Z,52.75
2023-05-03T05:18:17.076Z,52.72
2023-05-03T05:20:45.701Z,52.41
2023-05-03T05:23:12.900Z,52.58
2023-05-03T05:25:43.332Z,52.54
2023-05-03T05:28:11.492Z,51.96
2023-05-03T05:30:39.838Z,52.33
2023-05-03T05:33:10.973Z,52.87
2023-05-03T05:35:38.884Z,53.28
2023-05-03T05:38:06.082Z,52.90
2023-05-03T05:40:34.626Z,53.08
2023-05-03T05:43:02.682Z,53.07
2023-05-03T05:45:34.721Z,52.43
2023-05-03T05:48:04.977Z,52.51
2023-05-03T05:50:32.803Z,52.28
2023-05-03T05:53:05.023Z,52.26
2023-05-03T05:55:37.284Z,51.89
2023-05-03T05:58:05.052Z,52.48
2023-05-03T06:00:41.267Z,52.51
2023-05-03T06:03:08.445Z,52.71
2023-05-03T06:05:36.940Z,51.75
2023-05-03T06:08:04.319Z,51.76
2023-05-03T06:10:31.603Z,51.93
2023-05-03T06:12:58.937Z,51.51
2023-05-03T06:15:27.965Z,51.96
2023-05-03T06:17:55.239Z,51.32
2023-05-03T06:20:24.681Z,51.36
2023-05-03T06:22:53.225Z,51.46
2023-05-03T06:25:21.027Z,51.19
2023-05-03T06:27:50.164Z,51.18
2023-05-03T06:30:20.758Z,51.60
2023-05-03T06:32:49.836Z,51.12
2023-05-03T06:35:20.191Z,50.91
2023-05-03T06:37:47.892Z,50.74
2023-05-03T06:40:16.243Z,50.60
2023-05-03T06:42:43.473Z,50.52
2023-05-03T06:45:16.040Z,50.44
2023-05-03T06:47:43.395Z,50.52
2023-05-03T06:50:11.436Z,50.38
2023-05-03T06:52:38.657Z,49.96
2023-05-03T06:55:06.320Z,50.26
2023-05-03T06:57:33.527Z,50.13
2023-05-03T07:00:00.779Z,50.17
2023-05-03T07:02:28.468Z,50.14
2023-05-03T07:04:55.930Z,50.24
2023-05-03T07:07:23.191Z,49.91
2023-05-03T07:09:50.459Z,49.84
2023-05-03T07:12:17.765Z,49.87
2023-05-03T07:14:48.151Z,49.73
2023-05-03T07:17:17.568Z,49.51
2023-05-03T07:19:44.608Z,49.47
2023-05-03T07:22:12.327Z,49.02
2023-05-03T07:24:39.505Z,48.19
2023-05-03T07:27:06.906Z,47.74
2023-05-03T07:29:34.111Z,47.41
2023-05-03T07:32:01.490Z,47.65
2023-05-03T07:34:28.490Z,46.60
2023-05-03T07:36:56.235Z,45.82
2023-05-03T07:39:23.317Z,46.27
2023-05-03T07:41:52.971Z,46.40
2023-05-03T07:44:20.161Z,45.40
2023-05-03T07:46:47.316Z,45.48
2023-05-03T07:49:14.502Z,44.58
2023-05-03T07:51:42.037Z,44.22
2023-05-03T07:54:09.255Z,44.27
2023-05-03T07:56:36.655Z,44.36
2023-05-03T07:59:09.857Z,44.40
2023-05-03T08:01:38.336Z,43.52
2023-05-03T08:04:06.068Z,44.23
2023-05-03T08:06:35.755Z,44.49
2023-05-03T08:09:04.676Z,44.01
2023-05-03T08:11:32.257Z,43.47
2023-05-03T08:13:59.589Z,43.00
2023-05-03T08:16:27.158Z,43.20
2023-05-03T08:18:55.424Z,42.87
2023-05-03T08:21:25.308Z,42.41
2023-05-03T08:23:52.664Z,41.97
2023-05-03T08:26:22.326Z,41.63
2023-05-03T08:28:49.773Z,41.25
2023-05-03T08:31:17.552Z,40.93
2023-05-03T08:33:44.771Z,40.67
2023-05-03T08:36:12.026Z,40.15
2023-05-03T08:38:41.629Z,40.15
2023-05-03T08:41:30.510Z,39.12
2023-05-03T08:44:01.247Z,39.30
2023-05-03T08:46:29.846Z,38.62
2023-05-03T08:48:57.495Z,38.43
2023-05-03T08:51:25.309Z,38.61
2023-05-03T08:53:53.182Z,37.51
2023-05-03T08:56:33.939Z,36.64
2023-05-03T08:59:07.990Z,37.07
2023-05-03T09:01:40.357Z,38.32
2023-05-03T09:04:08.892Z,38.08
2023-05-03T09:06:37.006Z,38.85
2023-05-03T09:09:09.895Z,39.11
2023-05-03T09:11:46.452Z,38.66
2023-05-03T09:14:18.840Z,39.94
2023-05-03T09:16:47.508Z,40.78
2023-05-03T09:19:16.349Z,40.60
2023-05-03T09:21:45.624Z,41.26
2023-05-03T09:24:14.117Z,42.91
2023-05-03T09:26:42.593Z,43.17
2023-05-03T09:29:10.249Z,43.03
2023-05-03T09:31:38.287Z,42.30
2023-05-03T09:34:24.847Z,42.70
2023-05-03T09:36:52.086Z,42.21
2023-05-03T09:39:20.057Z,41.70
2023-05-03T09:41:47.834Z,40.87
2023-05-03T09:44:15.104Z,41.28
2023-05-03T09:47:03.484Z,41.30
2023-05-03T09:49:33.979Z,41.45
2023-05-03T09:52:01.768Z,42.57
2023-05-03T09:54:31.617Z,42.83
2023-05-03T09:57:00.826Z,43.77
2023-05-03T09:59:31.558Z,43.27
2023-05-03T10:02:02.717Z,42.83
2023-05-03T10:04:47.234Z,42.93
2023-05-03T10:07:18.654Z,44.28
2023-05-03T10:09:48.268Z,43.86
2023-05-03T10:12:19.222Z,44.46
2023-05-03T10:14:48.904Z,44.47
2023-05-03T10:17:47.116Z,45.41
2023-05-03T10:20:28.673Z,45.78
2023-05-03T10:23:05.237Z,46.01
2023-05-03T10:25:33.461Z,44.70
2023-05-03T10:28:10.300Z,44.29
2023-05-03T10:30:43.560Z,44.75
2023-05-03T10:33:13.735Z,43.37
2023-05-03T10:35:43.413Z,42.50
2023-05-03T10:38:20.899Z,43.54
2023-05-03T10:40:51.361Z,42.90
2023-05-03T10:43:33.509Z,42.90
2023-05-03T10:46:09.100Z,41.99
2023-05-03T10:48:36.322Z,41.79
2023-05-03T10:51:37.042Z,40.38
2023-05-03T10:54:04.580Z,40.36
2023-05-03T10:56:31.873Z,40.55
2023-05-03T10:58:59.298Z,39.00
2023-05-03T11:01:28.182Z,38.08
2023-05-03T11:04:34.242Z,37.59
2023-05-03T11:07:01.948Z,38.16
2023-05-03T11:09:34.228Z,37.26
2023-05-03T11:12:05.995Z,38.13
2023-05-03T11:14:33.262Z,39.01
2023-05-03T11:17:01.463Z,39.14
2023-05-03T11:19:29.385Z,38.10
2023-05-03T11:21:57.382Z,38.25
2023-05-03T11:24:24.557Z,39.19
2023-05-03T11:26:51.711Z,39.38
2023-05-03T11:29:19.749Z,39.26
2023-05-03T11:31:47.283Z,39.64
2023-05-03T11:34:23.449Z,40.11
2023-05-03T11:36:51.342Z,39.58
2023-05-03T11:39:21.726Z,39.45
2023-05-03T11:42:05.688Z,38.49
2023-05-03T11:44:33.355Z,38.88
2023-05-03T11:47:00.848Z,38.28
2023-05-03T11:49:28.560Z,37.99
2023-05-03T11:51:56.614Z,36.95
2023-05-03T11:54:26.908Z,38.91
2023-05-03T11:56:58.132Z,38.74
2023-05-03T11:59:37.328Z,37.03
2023-05-03T12:02:05.909Z,33.79
2023-05-03T12:04:33.807Z,36.05
2023-05-03T12:07:03.236Z,36.90
2023-05-03T12:09:33.770Z,35.70
2023-05-03T12:12:06.650Z,30.85
2023-05-03T12:14:55.859Z,30.46
2023-05-03T12:17:39.551Z,29.42
2023-05-03T12:22:58.971Z,31.44
2023-05-03T12:25:30.846Z,32.80
2023-05-03T12:30:34.175Z,32.03
2023-05-03T12:33:04.291Z,32.93
2023-05-03T12:35:34.085Z,38.75
2023-05-03T12:38:04.703Z,39.75
2023-05-03T12:40:34.562Z,40.21
2023-05-03T12:43:02.424Z,41.22
2023-05-03T12:45:34.444Z,39.65
2023-05-03T12:48:03.097Z,39.59
2023-05-03T12:50:31.909Z,40.67
2023-05-03T12:53:02.304Z,40.11
2023-05-03T12:55:35.658Z,40.90
2023-05-03T12:58:36.752Z,41.39
2023-05-03T13:03:32.760Z,43.21
2023-05-03T13:06:12.600Z,44.16
2023-05-03T13:08:48.882Z,45.38
2023-05-03T13:11:19.599Z,45.10
2023-05-03T13:13:47.270Z,46.26
2023-05-03T13:16:14.767Z,46.61
2023-05-03T13:18:43.233Z,45.83
2023-05-03T13:21:11.372Z,47.43
2023-05-03T13:23:38.757Z,47.72
2023-05-03T13:26:07.375Z,46.86
2023-05-03T13:28:34.683Z,46.41
2023-05-03T13:31:02.175Z,46.21
2023-05-03T13:33:29.834Z,44.82
2023-05-03T13:35:57.663Z,45.45
2023-05-03T13:38:24.877Z,46.42
2023-05-03T13:40:52.840Z,46.61
2023-05-03T13:43:28.116Z,47.44
2023-05-03T13:46:03.604Z,46.67
2023-05-03T13:48:33.419Z,47.18
2023-05-03T13:51:03.275Z,47.21
2023-05-03T13:53:30.481Z,47.49
2023-05-03T13:55:57.974Z,47.24
2023-05-03T13:58:25.110Z,47.66
2023-05-03T14:00:52.306Z,46.92
2023-05-03T14:03:19.737Z,48.24
2023-05-03T14:05:47.708Z,48.60
2023-05-03T14:08:16.881Z,49.27
2023-05-03T14:10:44.852Z,49.36
2023-05-03T14:13:14.691Z,48.67
2023-05-03T14:15:44.006Z,50.18
2023-05-03T14:18:11.977Z,49.63
2023-05-03T14:20:39.256Z,50.25
2023-05-03T14:23:09.068Z,50.79
2023-05-03T14:25:38.789Z,51.32
2023-05-03T14:28:06.199Z,51.52
2023-05-03T14:30:33.842Z,49.84
2023-05-03T14:33:01.276Z,48.83
2023-05-03T14:35:28.628Z,49.97
2023-05-03T14:37:58.652Z,50.83
2023-05-03T14:40:25.874Z,52.63
2023-05-03T14:42:53.341Z,52.05
2023-05-03T14:45:20.412Z,52.84
2023-05-03T14:47:47.623Z,52.42
2023-05-03T14:50:15.435Z,50.75
2023-05-03T14:52:42.479Z,51.15
2023-05-03T14:55:10.954Z,51.51
2023-05-03T14:57:41.726Z,51.58
2023-05-03T15:00:14.408Z,51.05
2023-05-03T15:02:42.542Z,51.17
2023-05-03T15:05:11.322Z,50.84
2023-05-03T15:07:38.749Z,49.92
2023-05-03T15:10:08.179Z,51.32
2023-05-03T15:12:36.756Z,48.36
2023-05-03T15:15:05.228Z,47.77
2023-05-03T15:17:34.448Z,48.44
2023-05-03T15:20:02.161Z,50.35
2023-05-03T15:22:29.902Z,51.08
2023-05-03T15:24:56.994Z,51.16
2023-05-03T15:27:24.618Z,50.01
2023-05-03T15:29:53.248Z,47.83
2023-05-03T15:32:20.657Z,45.35
2023-05-03T15:34:47.894Z,45.49
2023-05-03T15:37:16.166Z,44.38
2023-05-03T15:39:45.985Z,44.33
2023-05-03T15:42:15.875Z,45.50
2023-05-03T15:44:45.408Z,45.30
2023-05-03T15:47:12.622Z,45.28
2023-05-03T15:49:42.186Z,45.55
2023-05-03T15:52:09.433Z,44.31
2023-05-03T15:54:36.670Z,44.58
2023-05-03T15:57:05.025Z,44.98
2023-05-03T15:59:31.980Z,46.60
2023-05-03T16:02:08.224Z,46.35
2023-05-03T16:04:37.605Z,45.80
2023-05-03T16:07:04.763Z,45.17
2023-05-03T16:09:31.907Z,45.46
2023-05-03T16:11:59.416Z,47.22
2023-05-03T16:14:26.609Z,45.59
2023-05-03T16:16:54.614Z,46.35
2023-05-03T16:19:22.685Z,47.12
2023-05-03T16:21:58.076Z,46.33
2023-05-03T16:24:36.843Z,45.17
2023-05-03T16:27:31.548Z,46.72
2023-05-03T16:30:16.329Z,47.42
2023-05-03T16:32:55.466Z,47.81
2023-05-03T16:35:24.173Z,46.26
2023-05-03T16:37:52.250Z,47.00
2023-05-03T16:40:22.638Z,47.61
2023-05-03T16:42:52.855Z,47.01
2023-05-03T16:45:23.821Z,46.19
2023-05-03T16:47:54.026Z,45.91
2023-05-03T16:50:23.889Z,46.91
2023-05-03T16:52:51.972Z,47.47
2023-05-03T16:55:25.009Z,47.61
2023-05-03T16:57:54.926Z,47.58
2023-05-03T17:00:25.217Z,47.81
2023-05-03T17:02:53.035Z,47.86
2023-05-03T17:05:20.540Z,48.38
2023-05-03T17:07:48.044Z,47.43
2023-05-03T17:10:15.898Z,46.68
2023-05-03T17:12:43.088Z,45.98
2023-05-03T17:15:10.992Z,43.32
2023-05-03T17:17:38.406Z,40.73
2023-05-03T17:20:11.154Z,43.20
2023-05-03T17:22:38.303Z,42.57
2023-05-03T17:25:06.809Z,43.51
2023-05-03T17:27:33.956Z,42.19
2023-05-03T17:30:01.108Z,43.42
2023-05-03T17:32:28.543Z,44.00
2023-05-03T17:34:59.645Z,44.22
2023-05-03T17:37:27.256Z,43.20
2023-05-03T17:39:56.976Z,42.45
2023-05-03T17:42:24.211Z,44.25
2023-05-03T17:44:52.257Z,43.85
2023-05-03T17:47:19.451Z,44.50
2023-05-03T17:49:46.735Z,44.55
2023-05-03T17:52:13.946Z,45.33
2023-05-03T17:54:41.823Z,45.50
2023-05-03T17:57:10.166Z,44.41
2023-05-03T17:59:37.429Z,44.57
2023-05-03T18:02:04.953Z,45.47
2023-05-03T18:04:32.677Z,45.72
2023-05-03T18:06:59.980Z,46.88
2023-05-03T18:09:30.889Z,47.71
2023-05-03T18:12:00.471Z,47.21
2023-05-03T18:14:27.692Z,46.73
2023-05-03T18:16:55.391Z,46.00
2023-05-03T18:19:24.087Z,46.70
2023-05-03T18:21:52.631Z,48.00
2023-05-03T18:24:19.801Z,47.40
2023-05-03T18:26:47.391Z,47.94
2023-05-03T18:29:14.989Z,47.85
2023-05-03T18:31:45.199Z,47.94
2023-05-03T18:34:16.893Z,48.03
2023-05-03T18:36:44.208Z,48.26
2023-05-03T18:39:11.706Z,48.82
2023-05-03T18:41:39.130Z,47.52
2023-05-03T18:44:07.916Z,48.83
2023-05-03T18:46:37.499Z,48.36
2023-05-03T18:49:05.246Z,48.61
2023-05-03T18:51:32.731Z,49.00
2023-05-03T18:53:59.981Z,49.04
2023-05-03T18:56:30.616Z,49.07
2023-05-03T18:58:57.919Z,48.66
2023-05-03T19:01:26.808Z,47.65
2023-05-03T19:03:55.252Z,47.46
2023-05-03T19:06:22.515Z,48.53
2023-05-03T19:08:50.049Z,48.80
2023-05-03T19:11:17.696Z,50.09
2023-05-03T19:13:45.681Z,49.08
2023-05-03T19:16:13.786Z,50.41
2023-05-03T19:18:42.230Z,50.53
2023-05-03T19:21:19.576Z,50.55
2023-05-03T19:23:47.035Z,50.37
2023-05-03T19:26:16.885Z,51.55
2023-05-03T19:28:44.298Z,51.61
2023-05-03T19:31:11.960Z,51.66
2023-05-03T19:33:39.252Z,51.58
2023-05-03T19:36:07.093Z,51.40
2023-05-03T19:38:37.654Z,52.25
2023-05-03T19:41:14.209Z,51.29
2023-05-03T19:43:42.482Z,52.96
2023-05-03T19:46:11.950Z,52.64
2023-05-03T19:48:39.129Z,53.06
2023-05-03T19:51:13.985Z,53.09
2023-05-03T19:53:42.008Z,53.18
2023-05-03T19:56:10.266Z,52.99
2023-05-03T19:58:40.376Z,54.13
2023-05-03T20:01:07.765Z,53.57
2023-05-03T20:03:35.599Z,53.31
2023-05-03T20:06:03.728Z,53.91
2023-05-03T20:08:32.645Z,53.06
2023-05-03T20:11:00.218Z,53.81
2023-05-03T20:13:28.610Z,53.05
2023-05-03T20:15:56.627Z,52.63
2023-05-03T20:18:23.954Z,52.82
2023-05-03T20:20:51.243Z,52.55
2023-05-03T20:25:49.029Z,52.95
2023-05-03T20:28:16.385Z,53.91
2023-05-03T20:30:43.648Z,54.06
2023-05-03T20:33:12.700Z,55.46
2023-05-03T20:35:40.480Z,55.55
2023-05-03T20:38:07.887Z,55.57
2023-05-03T20:40:35.945Z,55.32
2023-05-03T20:43:03.203Z,54.93
2023-05-03T20:45:30.504Z,54.32
2023-05-03T20:47:57.731Z,54.57
2023-05-03T20:50:24.843Z,54.31
2023-05-03T20:52:52.121Z,54.48
2023-05-03T20:55:19.829Z,54.13
2023-05-03T20:57:47.100Z,53.95
2023-05-03T21:00:17.782Z,53.54
2023-05-03T21:02:45.185Z,54.02
2023-05-03T21:05:12.851Z,54.55
2023-05-03T21:07:40.182Z,54.09
2023-05-03T21:10:08.085Z,55.25
2023-05-03T21:12:35.323Z,54.98
2023-05-03T21:15:02.469Z,55.77
2023-05-03T21:17:29.738Z,56.11
2023-05-03T21:19:56.992Z,56.41
2023-05-03T21:22:24.136Z,56.14
2023-05-03T21:24:51.343Z,55.87
2023-05-03T21:27:19.577Z,56.61
2023-05-03T21:29:46.700Z,57.22
2023-05-03T21:32:13.934Z,56.25
2023-05-03T21:34:40.999Z,56.30
2023-05-03T21:37:08.500Z,57.28
2023-05-03T21:39:36.871Z,58.18
2023-05-03T21:42:04.374Z,58.86
2023-05-03T21:44:31.727Z,58.82
2023-05-03T21:46:59.041Z,58.01
2023-05-03T21:49:26.273Z,58.46
2023-05-03T21:51:53.940Z,58.70
2023-05-03T21:54:21.033Z,57.71
2023-05-03T21:56:48.351Z,58.42
2023-05-03T21:59:15.767Z,58.79
2023-05-03T22:01:42.966Z,57.61
2023-05-03T22:04:10.390Z,58.18
2023-05-03T22:06:38.252Z,57.80
2023-05-03T22:09:05.532Z,59.19
2023-05-03T22:11:32.798Z,59.00
2023-05-03T22:14:07.605Z,57.20
2023-05-03T22:16:37.936Z,58.14
2023-05-03T22:19:05.581Z,57.36
2023-05-03T22:21:32.894Z,57.73
2023-05-03T22:24:03.105Z,58.86
2023-05-03T22:26:30.482Z,57.67
2023-05-03T22:28:57.675Z,57.95
2023-05-03T22:31:26.227Z,58.22
2023-05-03T22:33:53.495Z,57.97
2023-05-03T22:36:20.869Z,57.49
2023-05-03T22:38:48.059Z,58.58
2023-05-03T22:41:15.770Z,59.00
2023-05-03T22:43:43.184Z,58.51
2023-05-03T22:46:10.479Z,57.71
2023-05-03T22:48:37.713Z,57.47
2023-05-03T22:51:05.347Z,57.32
2023-05-03T22:53:33.135Z,58.75
2023-05-03T22:56:04.373Z,58.11
2023-05-03T22:58:31.917Z,57.76
2023-05-03T23:00:59.127Z,58.74
2023-05-03T23:03:27.705Z,57.67
2023-05-03T23:05:55.331Z,57.91
2023-05-03T23:08:22.583Z,59.13
2023-05-03T23:10:50.267Z,58.28
2023-05-03T23:13:17.857Z,59.04
2023-05-03T23:15:45.450Z,58.27
2023-05-03T23:18:12.853Z,58.21
2023-05-03T23:20:40.023Z,58.32
2023-05-03T23:23:07.302Z,58.04
2023-05-03T23:25:36.903Z,59.02
2023-05-03T23:28:04.286Z,59.02
2023-05-03T23:30:31.997Z,58.60
2023-05-03T23:32:59.714Z,59.26
2023-05-03T23:35:27.477Z,58.73
2023-05-03T23:37:54.936Z,58.58
2023-05-03T23:40:22.081Z,58.56
2023-05-03T23:42:50.043Z,57.71
2023-05-03T23:45:17.508Z,58.15
2023-05-03T23:47:44.740Z,58.64
2023-05-03T23:50:14.619Z,58.29
2023-05-03T23:52:42.378Z,57.50
2023-05-03T23:55:10.503Z,57.63
2023-05-03T23:57:38.116Z,57.45
